createdAt,value
2017-12-27T00:00:46.174Z,55.10
2017-12-27T00:01:51.588Z,55.00
2017-12-27T00:02:57.773Z,55.00
2017-12-27T00:04:02.955Z,54.90
2017-12-27T00:05:07.910Z,54.90
2017-12-27T00:06:12.809Z,54.90
2017-12-27T00:07:17.873Z,55.00
2017-12-27T00:08:22.801Z,55.00
2017-12-27T00:09:27.888Z,55.10
2017-12-27T00:10:32.929Z,55.10
2017-12-27T00:11:37.876Z,55.20
2017-12-27T00:12:42.843Z,55.30
2017-12-27T00:13:47.741Z,55.20
2017-12-27T00:14:52.780Z,55.30
2017-12-27T00:15:57.642Z,55.20
2017-12-27T00:17:02.591Z,55.30
2017-12-27T00:18:07.900Z,55.30
2017-12-27T00:19:12.899Z,55.40
2017-12-27T00:20:17.902Z,55.50
2017-12-27T00:21:24.181Z,55.50
2017-12-27T00:22:29.088Z,55.60
2017-12-27T00:23:33.953Z,55.60
2017-12-27T00:24:53.406Z,55.70
2017-12-27T00:25:58.237Z,55.70
2017-12-27T00:27:03.070Z,55.80
2017-12-27T00:28:08.085Z,55.80
2017-12-27T00:29:12.915Z,55.90
2017-12-27T00:30:17.942Z,55.90
2017-12-27T00:31:22.729Z,55.90
2017-12-27T00:32:27.651Z,56.00
2017-12-27T00:33:32.558Z,56.10
2017-12-27T00:34:37.376Z,56.00
2017-12-27T00:35:42.477Z,56.00
2017-12-27T00:36:47.280Z,56.00
2017-12-27T00:37:52.291Z,56.00
2017-12-27T00:38:57.380Z,56.00
2017-12-27T00:40:02.723Z,56.10
2017-12-27T00:41:07.486Z,56.10
2017-12-27T00:42:12.355Z,56.10
2017-12-27T00:43:17.298Z,56.20
2017-12-27T00:44:22.307Z,56.20
2017-12-27T00:45:27.131Z,56.30
2017-12-27T00:46:31.945Z,56.20
2017-12-27T00:47:36.676Z,56.20
2017-12-27T00:48:41.684Z,56.30
2017-12-27T00:49:46.501Z,56.30
2017-12-27T00:50:51.449Z,56.40
2017-12-27T00:51:56.235Z,56.40
2017-12-27T00:53:01.251Z,56.40
2017-12-27T00:54:06.112Z,56.40
2017-12-27T00:55:11.168Z,56.50
2017-12-27T00:56:16.196Z,56.50
2017-12-27T00:57:22.338Z,56.50
2017-12-27T00:58:27.244Z,56.60
2017-12-27T00:59:32.152Z,56.70
2017-12-27T01:00:37.083Z,56.60
2017-12-27T01:01:41.881Z,56.70
2017-12-27T01:02:46.688Z,56.70
2017-12-27T01:03:51.708Z,56.70
2017-12-27T01:04:56.433Z,56.70
2017-12-27T01:06:01.404Z,56.70
2017-12-27T01:07:06.615Z,56.80
2017-12-27T01:08:11.648Z,56.80
2017-12-27T01:09:16.637Z,56.80
2017-12-27T01:10:21.442Z,56.80
2017-12-27T01:11:26.271Z,56.80
2017-12-27T01:12:31.130Z,56.90
2017-12-27T01:13:35.854Z,56.90
2017-12-27T01:14:40.793Z,56.90
2017-12-27T01:15:45.689Z,56.90
2017-12-27T01:16:50.570Z,56.90
2017-12-27T01:17:55.473Z,57.00
2017-12-27T01:19:00.454Z,57.00
2017-12-27T01:20:05.209Z,57.10
2017-12-27T01:21:10.239Z,57.10
2017-12-27T01:22:15.203Z,57.20
2017-12-27T01:23:20.019Z,57.20
2017-12-27T01:24:24.963Z,57.20
2017-12-27T01:25:29.788Z,57.30
2017-12-27T01:26:34.588Z,57.30
2017-12-27T01:27:40.250Z,57.30
2017-12-27T01:28:46.006Z,57.40
2017-12-27T01:29:51.798Z,57.40
2017-12-27T01:30:57.230Z,57.40
2017-12-27T01:32:02.994Z,57.40
2017-12-27T01:33:08.075Z,57.40
2017-12-27T01:34:12.826Z,57.40
2017-12-27T01:35:17.760Z,57.30
2017-12-27T01:36:22.773Z,57.40
2017-12-27T01:37:27.572Z,57.40
2017-12-27T01:38:32.570Z,57.50
2017-12-27T01:39:37.369Z,57.50
2017-12-27T01:40:42.222Z,57.50
2017-12-27T01:41:47.191Z,57.50
2017-12-27T01:42:52.270Z,57.50
2017-12-27T01:43:57.088Z,57.50
2017-12-27T01:45:01.985Z,57.50
2017-12-27T01:46:06.759Z,57.60
2017-12-27T01:47:11.952Z,57.60
2017-12-27T01:48:17.450Z,57.70
2017-12-27T01:49:22.333Z,57.70
2017-12-27T01:50:27.411Z,57.70
2017-12-27T01:51:32.425Z,57.70
2017-12-27T01:52:37.450Z,57.70
2017-12-27T01:53:42.165Z,57.70
2017-12-27T01:54:47.163Z,57.70
2017-12-27T01:55:51.951Z,57.70
2017-12-27T01:56:56.960Z,57.70
2017-12-27T01:58:02.000Z,57.70
2017-12-27T01:59:06.983Z,58.40
2017-12-27T02:00:11.684Z,57.80
2017-12-27T02:01:16.672Z,57.80
2017-12-27T02:02:21.595Z,57.70
2017-12-27T02:03:27.731Z,57.90
2017-12-27T02:04:32.480Z,57.90
2017-12-27T02:05:38.503Z,57.80
2017-12-27T02:06:43.320Z,58.00
2017-12-27T02:07:48.094Z,57.90
2017-12-27T02:08:53.136Z,57.80
2017-12-27T02:09:58.115Z,57.80
2017-12-27T02:11:03.197Z,57.80
2017-12-27T02:12:08.191Z,57.90
2017-12-27T02:13:13.192Z,57.80
2017-12-27T02:14:18.176Z,57.80
2017-12-27T02:15:23.017Z,58.00
2017-12-27T02:16:28.042Z,57.90
2017-12-27T02:17:32.839Z,57.90
2017-12-27T02:18:37.856Z,57.90
2017-12-27T02:19:42.670Z,57.90
2017-12-27T02:20:47.624Z,57.90
2017-12-27T02:21:52.408Z,57.90
2017-12-27T02:22:57.231Z,57.90
2017-12-27T02:24:03.344Z,57.90
2017-12-27T02:25:08.147Z,58.00
2017-12-27T02:26:12.935Z,58.00
2017-12-27T02:27:17.728Z,58.00
2017-12-27T02:28:22.652Z,58.00
2017-12-27T02:29:27.470Z,58.10
2017-12-27T02:30:32.290Z,58.10
2017-12-27T02:31:36.961Z,58.10
2017-12-27T02:32:41.834Z,58.00
2017-12-27T02:33:46.772Z,58.00
2017-12-27T02:34:51.477Z,58.10
2017-12-27T02:35:56.411Z,58.10
2017-12-27T02:37:01.421Z,58.10
2017-12-27T02:38:06.439Z,58.10
2017-12-27T02:39:11.256Z,58.10
2017-12-27T02:40:16.151Z,58.10
2017-12-27T02:41:20.937Z,58.10
2017-12-27T02:42:26.561Z,58.10
2017-12-27T02:43:31.467Z,58.10
2017-12-27T02:44:36.227Z,58.10
2017-12-27T02:45:41.520Z,58.10
2017-12-27T02:46:46.544Z,58.10
2017-12-27T02:47:51.451Z,58.10
2017-12-27T02:48:56.387Z,58.10
2017-12-27T02:50:01.327Z,58.10
2017-12-27T02:51:06.129Z,58.20
2017-12-27T02:52:11.178Z,58.30
2017-12-27T02:53:16.148Z,58.10
2017-12-27T02:54:21.285Z,58.20
2017-12-27T02:55:26.223Z,58.20
2017-12-27T02:56:31.178Z,58.20
2017-12-27T02:57:35.995Z,58.20
2017-12-27T02:58:40.856Z,58.20
2017-12-27T02:59:45.838Z,58.20
2017-12-27T03:00:51.502Z,58.20
2017-12-27T03:01:56.483Z,58.20
2017-12-27T03:03:01.552Z,58.30
2017-12-27T03:04:08.170Z,58.30
2017-12-27T03:05:13.129Z,58.30
2017-12-27T03:06:17.979Z,58.30
2017-12-27T03:07:22.804Z,58.30
2017-12-27T03:08:27.726Z,58.30
2017-12-27T03:09:32.701Z,58.30
2017-12-27T03:10:37.677Z,58.30
2017-12-27T03:11:42.448Z,58.30
2017-12-27T03:12:47.516Z,58.30
2017-12-27T03:13:52.338Z,58.30
2017-12-27T03:14:57.100Z,58.40
2017-12-27T03:16:02.083Z,58.40
2017-12-27T03:17:07.099Z,58.30
2017-12-27T03:18:12.076Z,58.30
2017-12-27T03:19:17.397Z,58.30
2017-12-27T03:20:22.549Z,58.40
2017-12-27T03:21:27.396Z,58.40
2017-12-27T03:22:32.372Z,58.30
2017-12-27T03:23:37.349Z,58.30
2017-12-27T03:24:42.140Z,58.40
2017-12-27T03:25:46.935Z,58.40
2017-12-27T03:26:51.935Z,58.40
2017-12-27T03:27:57.018Z,58.40
2017-12-27T03:29:01.782Z,58.40
2017-12-27T03:30:06.763Z,58.30
2017-12-27T03:31:11.519Z,58.30
2017-12-27T03:32:16.427Z,58.40
2017-12-27T03:33:21.167Z,58.40
2017-12-27T03:34:26.092Z,58.40
2017-12-27T03:35:30.977Z,58.30
2017-12-27T03:36:35.907Z,58.40
2017-12-27T03:37:40.913Z,58.40
2017-12-27T03:38:45.661Z,58.40
2017-12-27T03:39:50.578Z,58.40
2017-12-27T03:40:55.522Z,58.30
2017-12-27T03:42:00.490Z,58.40
2017-12-27T03:43:05.470Z,58.40
2017-12-27T03:44:10.270Z,58.40
2017-12-27T03:45:15.306Z,58.30
2017-12-27T03:46:20.105Z,58.30
2017-12-27T03:47:25.136Z,58.30
2017-12-27T03:48:29.938Z,58.40
2017-12-27T03:49:34.916Z,58.30
2017-12-27T03:50:39.749Z,58.30
2017-12-27T03:51:44.710Z,58.30
2017-12-27T03:52:49.725Z,58.40
2017-12-27T03:53:54.686Z,58.40
2017-12-27T03:54:59.688Z,58.40
2017-12-27T03:56:04.868Z,58.40
2017-12-27T03:57:09.817Z,58.40
2017-12-27T03:58:14.784Z,58.40
2017-12-27T03:59:19.819Z,58.40
2017-12-27T04:00:25.003Z,58.40
2017-12-27T04:01:29.959Z,58.50
2017-12-27T04:02:34.690Z,58.40
2017-12-27T04:03:39.695Z,58.50
2017-12-27T04:04:44.506Z,58.50
2017-12-27T04:05:49.438Z,58.40
2017-12-27T04:06:54.251Z,58.40
2017-12-27T04:07:59.141Z,58.40
2017-12-27T04:09:04.038Z,58.50
2017-12-27T04:10:08.789Z,58.50
2017-12-27T04:11:13.786Z,58.50
2017-12-27T04:12:18.503Z,58.40
2017-12-27T04:13:23.454Z,58.50
2017-12-27T04:14:28.697Z,58.50
2017-12-27T04:15:33.652Z,58.40
2017-12-27T04:16:38.589Z,58.50
2017-12-27T04:17:43.585Z,58.50
2017-12-27T04:18:48.558Z,58.50
2017-12-27T04:19:53.486Z,58.50
2017-12-27T04:20:58.261Z,58.60
2017-12-27T04:22:03.041Z,58.50
2017-12-27T04:23:07.792Z,58.50
2017-12-27T04:24:12.793Z,58.60
2017-12-27T04:25:17.536Z,58.60
2017-12-27T04:26:22.375Z,58.60
2017-12-27T04:27:27.160Z,58.50
2017-12-27T04:28:31.906Z,58.60
2017-12-27T04:29:36.838Z,58.50
2017-12-27T04:30:41.676Z,58.40
2017-12-27T04:31:46.490Z,58.40
2017-12-27T04:32:52.005Z,58.50
2017-12-27T04:33:56.767Z,58.60
2017-12-27T04:35:01.529Z,58.50
2017-12-27T04:36:06.471Z,58.50
2017-12-27T04:37:11.308Z,58.60
2017-12-27T04:38:16.007Z,58.60
2017-12-27T04:39:21.034Z,58.50
2017-12-27T04:40:25.787Z,58.60
2017-12-27T04:41:30.745Z,58.60
2017-12-27T04:42:35.747Z,58.70
2017-12-27T04:43:40.728Z,58.50
2017-12-27T04:44:45.670Z,58.50
2017-12-27T04:45:50.677Z,58.50
2017-12-27T04:46:55.563Z,58.60
2017-12-27T04:48:00.593Z,58.50
2017-12-27T04:49:05.402Z,58.70
2017-12-27T04:50:10.264Z,58.60
2017-12-27T04:51:16.061Z,58.60
2017-12-27T04:52:21.028Z,58.50
2017-12-27T04:53:26.107Z,58.50
2017-12-27T04:54:31.073Z,58.50
2017-12-27T04:55:35.867Z,58.50
2017-12-27T04:56:40.810Z,58.60
2017-12-27T04:57:45.531Z,58.50
2017-12-27T04:58:50.296Z,58.60
2017-12-27T04:59:55.216Z,58.50
2017-12-27T05:00:59.990Z,58.50
2017-12-27T05:02:04.752Z,58.50
2017-12-27T05:03:09.499Z,58.50
2017-12-27T05:04:14.540Z,58.50
2017-12-27T05:05:19.620Z,58.60
2017-12-27T05:06:24.475Z,58.60
2017-12-27T05:07:29.328Z,58.60
2017-12-27T05:08:34.134Z,58.60
2017-12-27T05:09:39.798Z,58.60
2017-12-27T05:10:44.606Z,58.60
2017-12-27T05:11:49.611Z,58.60
2017-12-27T05:12:54.407Z,58.60
2017-12-27T05:13:59.201Z,58.60
2017-12-27T05:15:03.990Z,58.60
2017-12-27T05:16:08.753Z,58.60
2017-12-27T05:17:14.770Z,58.60
2017-12-27T05:18:19.574Z,58.60
2017-12-27T05:19:24.521Z,58.60
2017-12-27T05:20:29.302Z,58.60
2017-12-27T05:21:34.105Z,58.70
2017-12-27T05:22:38.898Z,58.60
2017-12-27T05:23:43.860Z,58.70
2017-12-27T05:24:48.655Z,58.60
2017-12-27T05:25:53.635Z,58.70
2017-12-27T05:26:58.571Z,58.70
2017-12-27T05:28:04.252Z,58.60
2017-12-27T05:29:09.226Z,58.60
2017-12-27T05:30:14.702Z,58.60
2017-12-27T05:31:19.684Z,58.70
2017-12-27T05:32:24.464Z,58.60
2017-12-27T05:33:29.239Z,58.60
2017-12-27T05:34:34.514Z,58.60
2017-12-27T05:35:39.335Z,58.70
2017-12-27T05:36:44.278Z,58.70
2017-12-27T05:37:49.078Z,58.60
2017-12-27T05:38:53.927Z,58.70
2017-12-27T05:39:58.934Z,58.70
2017-12-27T05:41:03.780Z,58.70
2017-12-27T05:42:08.530Z,58.70
2017-12-27T05:43:13.539Z,58.60
2017-12-27T05:44:18.374Z,58.70
2017-12-27T05:45:23.443Z,58.70
2017-12-27T05:46:28.462Z,58.70
2017-12-27T05:47:33.399Z,58.70
2017-12-27T05:48:38.250Z,58.60
2017-12-27T05:49:43.058Z,58.70
2017-12-27T05:50:48.691Z,58.60
2017-12-27T05:51:53.614Z,58.70
2017-12-27T05:52:58.377Z,58.60
2017-12-27T05:54:03.149Z,58.60
2017-12-27T05:55:07.974Z,58.60
2017-12-27T05:56:12.924Z,58.70
2017-12-27T05:57:17.837Z,58.60
2017-12-27T05:58:22.945Z,58.60
2017-12-27T05:59:27.914Z,58.60
2017-12-27T06:00:32.743Z,58.60
2017-12-27T06:01:37.497Z,58.60
2017-12-27T06:02:42.377Z,58.60
2017-12-27T06:03:47.172Z,58.60
2017-12-27T06:04:52.064Z,58.60
2017-12-27T06:05:57.035Z,58.70
2017-12-27T06:07:01.965Z,58.60
2017-12-27T06:08:06.934Z,58.60
2017-12-27T06:09:11.717Z,58.70
2017-12-27T06:10:16.472Z,58.60
2017-12-27T06:11:21.452Z,58.60
2017-12-27T06:12:26.242Z,58.60
2017-12-27T06:13:31.065Z,58.60
2017-12-27T06:14:37.370Z,58.60
2017-12-27T06:15:42.500Z,58.60
2017-12-27T06:16:47.567Z,58.70
2017-12-27T06:17:52.322Z,58.70
2017-12-27T06:18:57.488Z,58.60
2017-12-27T06:20:02.258Z,58.60
2017-12-27T06:21:07.144Z,58.70
2017-12-27T06:22:12.065Z,58.60
2017-12-27T06:23:17.013Z,58.60
2017-12-27T06:24:21.943Z,58.60
2017-12-27T06:25:26.776Z,58.60
2017-12-27T06:26:31.796Z,58.60
2017-12-27T06:27:36.743Z,58.60
2017-12-27T06:28:41.705Z,58.60
2017-12-27T06:29:46.423Z,58.80
2017-12-27T06:30:51.364Z,58.80
2017-12-27T06:31:56.377Z,58.70
2017-12-27T06:33:01.443Z,58.70
2017-12-27T06:34:06.410Z,58.60
2017-12-27T06:35:11.430Z,58.60
2017-12-27T06:36:16.249Z,58.20
2017-12-27T06:37:21.263Z,58.00
2017-12-27T06:38:26.165Z,57.90
2017-12-27T06:39:30.953Z,58.10
2017-12-27T06:40:35.728Z,58.10
2017-12-27T06:41:40.792Z,58.10
2017-12-27T06:42:45.688Z,58.20
2017-12-27T06:43:50.451Z,58.10
2017-12-27T06:44:55.259Z,58.10
2017-12-27T06:46:00.278Z,58.10
2017-12-27T06:47:05.242Z,58.10
2017-12-27T06:48:10.210Z,58.00
2017-12-27T06:49:14.975Z,57.90
2017-12-27T06:50:19.893Z,57.70
2017-12-27T06:51:24.882Z,57.50
2017-12-27T06:52:29.730Z,57.40
2017-12-27T06:53:35.989Z,57.10
2017-12-27T06:54:43.771Z,57.00
2017-12-27T06:55:48.674Z,56.90
2017-12-27T06:56:53.711Z,56.70
2017-12-27T06:57:58.724Z,56.40
2017-12-27T06:59:03.628Z,56.20
2017-12-27T07:00:08.570Z,55.80
2017-12-27T07:01:13.484Z,55.70
2017-12-27T07:02:18.531Z,55.60
2017-12-27T07:03:23.542Z,55.50
2017-12-27T07:04:28.328Z,55.40
2017-12-27T07:05:33.357Z,55.20
2017-12-27T07:06:38.173Z,55.10
2017-12-27T07:07:43.051Z,55.00
2017-12-27T07:08:47.883Z,55.00
2017-12-27T07:09:53.305Z,55.00
2017-12-27T07:10:58.327Z,54.90
2017-12-27T07:12:03.208Z,54.90
2017-12-27T07:13:07.969Z,55.00
2017-12-27T07:14:12.918Z,55.00
2017-12-27T07:15:17.944Z,55.00
2017-12-27T07:16:22.810Z,55.10
2017-12-27T07:17:27.843Z,55.10
2017-12-27T07:18:32.931Z,55.10
2017-12-27T07:19:38.004Z,55.00
2017-12-27T07:20:43.120Z,55.00
2017-12-27T07:21:48.175Z,55.00
2017-12-27T07:22:52.967Z,55.10
2017-12-27T07:23:57.807Z,55.10
2017-12-27T07:25:02.577Z,55.40
2017-12-27T07:26:07.433Z,55.50
2017-12-27T07:27:12.453Z,55.80
2017-12-27T07:28:17.498Z,56.10
2017-12-27T07:29:23.408Z,56.10
2017-12-27T07:30:28.476Z,56.20
2017-12-27T07:31:33.495Z,56.20
2017-12-27T07:32:38.306Z,56.40
2017-12-27T07:33:43.087Z,56.50
2017-12-27T07:34:48.002Z,56.70
2017-12-27T07:35:53.169Z,56.90
2017-12-27T07:36:59.207Z,56.90
2017-12-27T07:38:03.992Z,57.20
2017-12-27T07:39:08.822Z,57.70
2017-12-27T07:40:13.586Z,57.70
2017-12-27T07:41:18.414Z,58.00
2017-12-27T07:42:23.212Z,58.00
2017-12-27T07:43:28.132Z,58.20
2017-12-27T07:44:33.152Z,58.30
2017-12-27T07:45:38.950Z,58.30
2017-12-27T07:46:43.700Z,58.30
2017-12-27T07:47:48.643Z,58.20
2017-12-27T07:48:53.579Z,57.90
2017-12-27T07:49:58.562Z,57.70
2017-12-27T07:51:03.379Z,57.60
2017-12-27T07:52:08.357Z,57.50
2017-12-27T07:53:13.327Z,57.70
2017-12-27T07:54:18.628Z,57.70
2017-12-27T07:55:23.643Z,57.60
2017-12-27T07:56:28.431Z,57.70
2017-12-27T07:57:33.395Z,57.80
2017-12-27T07:58:38.231Z,57.80
2017-12-27T07:59:43.021Z,57.90
2017-12-27T08:00:47.752Z,58.10
2017-12-27T08:01:52.882Z,58.10
2017-12-27T08:02:57.648Z,58.20
2017-12-27T08:04:03.323Z,58.20
2017-12-27T08:05:08.084Z,58.90
2017-12-27T08:06:12.869Z,58.30
2017-12-27T08:07:17.851Z,58.40
2017-12-27T08:08:22.863Z,58.40
2017-12-27T08:09:27.832Z,58.50
2017-12-27T08:10:32.734Z,58.50
2017-12-27T08:11:37.500Z,58.50
2017-12-27T08:12:42.275Z,58.50
2017-12-27T08:13:47.061Z,58.60
2017-12-27T08:14:52.044Z,58.70
2017-12-27T08:15:56.789Z,58.80
2017-12-27T08:17:01.714Z,58.80
2017-12-27T08:18:06.445Z,59.00
2017-12-27T08:19:11.350Z,59.00
2017-12-27T08:20:16.062Z,59.10
2017-12-27T08:21:21.028Z,59.00
2017-12-27T08:22:25.904Z,59.10
2017-12-27T08:23:30.909Z,59.00
2017-12-27T08:24:35.925Z,59.00
2017-12-27T08:25:41.346Z,58.90
2017-12-27T08:26:46.603Z,59.00
2017-12-27T08:27:51.980Z,59.10
2017-12-27T08:28:57.598Z,58.90
2017-12-27T08:30:03.119Z,58.30
2017-12-27T08:31:08.149Z,58.00
2017-12-27T08:32:13.593Z,57.90
2017-12-27T08:33:18.487Z,58.00
2017-12-27T08:34:23.441Z,57.90
2017-12-27T08:35:28.330Z,57.80
2017-12-27T08:36:33.115Z,57.70
2017-12-27T08:37:38.104Z,57.90
2017-12-27T08:38:43.093Z,58.10
2017-12-27T08:39:48.129Z,58.10
2017-12-27T08:40:52.948Z,58.30
2017-12-27T08:41:57.984Z,58.40
2017-12-27T08:43:03.448Z,58.40
2017-12-27T08:44:09.356Z,58.50
2017-12-27T08:45:15.203Z,58.60
2017-12-27T08:46:20.327Z,58.70
2017-12-27T08:47:25.285Z,58.90
2017-12-27T08:48:30.371Z,58.90
2017-12-27T08:49:35.432Z,59.10
2017-12-27T08:50:40.331Z,59.20
2017-12-27T08:51:45.260Z,59.10
2017-12-27T08:52:50.353Z,58.70
2017-12-27T08:53:56.144Z,58.00
2017-12-27T08:55:01.101Z,57.60
2017-12-27T08:56:06.012Z,57.70
2017-12-27T08:57:11.097Z,57.50
2017-12-27T08:58:16.211Z,57.00
2017-12-27T08:59:21.192Z,56.50
2017-12-27T09:00:26.071Z,56.40
2017-12-27T09:01:30.907Z,55.90
2017-12-27T09:02:35.820Z,55.50
2017-12-27T09:03:40.908Z,55.80
2017-12-27T09:04:45.914Z,55.90
2017-12-27T09:05:50.910Z,56.10
2017-12-27T09:06:56.098Z,56.30
2017-12-27T09:08:01.240Z,56.40
2017-12-27T09:09:09.056Z,56.60
2017-12-27T09:10:14.087Z,56.80
2017-12-27T09:11:20.329Z,56.90
2017-12-27T09:12:25.622Z,57.10
2017-12-27T09:13:30.519Z,57.20
2017-12-27T09:14:35.809Z,57.40
2017-12-27T09:15:40.815Z,57.50
2017-12-27T09:16:45.773Z,57.70
2017-12-27T09:17:50.779Z,57.80
2017-12-27T09:18:55.524Z,58.00
2017-12-27T09:20:00.488Z,58.10
2017-12-27T09:21:05.272Z,58.30
2017-12-27T09:22:10.092Z,58.40
2017-12-27T09:23:15.667Z,58.50
2017-12-27T09:24:20.540Z,58.60
2017-12-27T09:25:25.513Z,58.60
2017-12-27T09:26:30.519Z,58.80
2017-12-27T09:27:35.331Z,58.90
2017-12-27T09:28:40.106Z,59.00
2017-12-27T09:29:45.587Z,59.10
2017-12-27T09:30:50.549Z,59.40
2017-12-27T09:31:55.856Z,59.30
2017-12-27T09:33:00.821Z,59.40
2017-12-27T09:34:05.581Z,59.10
2017-12-27T09:35:10.568Z,59.30
2017-12-27T09:36:15.296Z,59.40
2017-12-27T09:37:21.285Z,59.50
2017-12-27T09:38:26.012Z,59.60
2017-12-27T09:39:30.965Z,59.30
2017-12-27T09:40:35.875Z,59.30
2017-12-27T09:41:40.986Z,59.30
2017-12-27T09:42:46.016Z,59.30
2017-12-27T09:43:50.810Z,59.20
2017-12-27T09:44:55.756Z,59.30
2017-12-27T09:46:00.600Z,59.30
2017-12-27T09:47:05.561Z,59.30
2017-12-27T09:48:10.415Z,59.30
2017-12-27T09:49:15.191Z,59.30
2017-12-27T09:50:20.345Z,59.30
2017-12-27T09:51:25.489Z,59.40
2017-12-27T09:52:30.624Z,59.40
2017-12-27T09:53:35.899Z,59.40
2017-12-27T09:54:41.058Z,59.40
2017-12-27T09:55:46.127Z,59.50
2017-12-27T09:56:51.235Z,59.50
2017-12-27T09:57:56.333Z,59.60
2017-12-27T09:59:01.414Z,59.50
2017-12-27T10:00:06.394Z,59.60
2017-12-27T10:01:11.444Z,59.70
2017-12-27T10:02:16.387Z,59.60
2017-12-27T10:03:21.195Z,59.70
2017-12-27T10:04:26.186Z,59.70
2017-12-27T10:05:31.142Z,59.90
2017-12-27T10:06:35.973Z,59.80
2017-12-27T10:07:40.977Z,59.80
2017-12-27T10:08:45.998Z,59.80
2017-12-27T10:09:50.975Z,59.80
2017-12-27T10:10:55.949Z,59.60
2017-12-27T10:12:01.218Z,59.60
2017-12-27T10:13:06.078Z,59.40
2017-12-27T10:14:10.984Z,59.50
2017-12-27T10:15:17.528Z,59.30
2017-12-27T10:16:22.753Z,59.40
2017-12-27T10:17:27.684Z,59.40
2017-12-27T10:18:32.646Z,59.50
2017-12-27T10:19:37.506Z,59.40
2017-12-27T10:20:42.529Z,59.50
2017-12-27T10:21:47.714Z,59.60
2017-12-27T10:22:52.922Z,59.80
2017-12-27T10:23:58.008Z,59.80
2017-12-27T10:25:03.177Z,59.90
2017-12-27T10:26:08.246Z,59.80
2017-12-27T10:27:13.289Z,59.90
2017-12-27T10:28:18.502Z,59.80
2017-12-27T10:29:23.597Z,59.60
2017-12-27T10:30:28.628Z,59.80
2017-12-27T10:31:33.766Z,59.80
2017-12-27T10:32:38.794Z,59.90
2017-12-27T10:33:44.062Z,59.90
2017-12-27T10:34:49.693Z,60.40
2017-12-27T10:35:54.937Z,60.50
2017-12-27T10:37:00.031Z,60.40
2017-12-27T10:38:05.118Z,60.40
2017-12-27T10:39:10.258Z,60.30
2017-12-27T10:40:15.165Z,60.40
2017-12-27T10:41:20.366Z,60.50
2017-12-27T10:42:25.231Z,60.90
2017-12-27T10:43:30.386Z,60.60
2017-12-27T10:44:35.430Z,60.60
2017-12-27T10:45:40.511Z,60.70
2017-12-27T10:46:45.459Z,60.60
2017-12-27T10:47:50.441Z,61.40
2017-12-27T10:48:55.452Z,60.70
2017-12-27T10:50:00.619Z,60.80
2017-12-27T10:51:05.658Z,60.90
2017-12-27T10:52:11.439Z,61.20
2017-12-27T10:53:16.639Z,61.50
2017-12-27T10:54:24.961Z,61.60
2017-12-27T10:55:30.138Z,61.60
2017-12-27T10:56:34.993Z,61.60
2017-12-27T10:57:40.457Z,61.90
2017-12-27T10:58:45.549Z,62.10
2017-12-27T10:59:50.622Z,62.10
2017-12-27T11:00:55.803Z,62.00
2017-12-27T11:02:00.699Z,62.10
2017-12-27T11:03:05.763Z,62.20
2017-12-27T11:04:11.454Z,62.30
2017-12-27T11:05:16.512Z,62.30
2017-12-27T11:06:21.658Z,62.40
2017-12-27T11:07:26.817Z,62.30
2017-12-27T11:08:32.093Z,62.40
2017-12-27T11:09:37.081Z,62.50
2017-12-27T11:10:42.019Z,62.50
2017-12-27T11:11:47.026Z,62.50
2017-12-27T11:12:52.378Z,62.30
2017-12-27T11:13:57.565Z,62.10
2017-12-27T11:15:02.572Z,62.20
2017-12-27T11:16:07.732Z,62.20
2017-12-27T11:17:12.811Z,62.10
2017-12-27T11:18:17.884Z,62.00
2017-12-27T11:19:23.065Z,61.90
2017-12-27T11:20:28.286Z,61.70
2017-12-27T11:21:33.580Z,61.50
2017-12-27T11:22:38.635Z,61.50
2017-12-27T11:23:43.587Z,61.40
2017-12-27T11:24:48.847Z,61.30
2017-12-27T11:25:54.906Z,62.10
2017-12-27T11:27:00.216Z,61.30
2017-12-27T11:28:05.371Z,61.20
2017-12-27T11:29:10.674Z,61.20
2017-12-27T11:30:16.289Z,61.10
2017-12-27T11:31:21.451Z,61.10
2017-12-27T11:32:26.476Z,61.30
2017-12-27T11:33:31.689Z,61.00
2017-12-27T11:34:36.692Z,61.00
2017-12-27T11:35:41.942Z,61.30
2017-12-27T11:36:47.059Z,61.60
2017-12-27T11:37:52.078Z,61.30
2017-12-27T11:38:57.178Z,61.30
2017-12-27T11:40:02.387Z,61.40
2017-12-27T11:41:07.496Z,61.20
2017-12-27T11:42:14.404Z,61.30
2017-12-27T11:43:19.303Z,61.40
2017-12-27T11:44:24.387Z,61.40
2017-12-27T11:45:29.537Z,61.50
2017-12-27T11:46:34.582Z,61.40
2017-12-27T11:47:39.771Z,61.60
2017-12-27T11:48:44.946Z,61.60
2017-12-27T11:49:50.057Z,61.60
2017-12-27T11:50:54.958Z,61.60
2017-12-27T11:52:00.204Z,61.70
2017-12-27T11:53:05.457Z,61.80
2017-12-27T11:54:10.408Z,62.10
2017-12-27T11:55:15.505Z,61.80
2017-12-27T11:56:20.515Z,60.90
2017-12-27T11:57:25.473Z,60.60
2017-12-27T11:58:30.593Z,55.60
2017-12-27T11:59:35.938Z,57.00
2017-12-27T12:00:41.214Z,52.10
2017-12-27T12:01:46.780Z,49.50
2017-12-27T12:02:51.617Z,48.90
2017-12-27T12:03:56.907Z,48.50
2017-12-27T12:05:02.207Z,47.80
2017-12-27T12:06:07.611Z,47.50
2017-12-27T12:07:12.889Z,46.30
2017-12-27T12:08:17.702Z,45.70
2017-12-27T12:09:22.677Z,45.40
2017-12-27T12:10:27.704Z,44.90
2017-12-27T12:11:32.627Z,45.00
2017-12-27T12:12:37.655Z,45.50
2017-12-27T12:13:42.501Z,46.40
2017-12-27T12:14:47.615Z,46.90
2017-12-27T12:15:52.686Z,47.50
2017-12-27T12:16:57.747Z,48.00
2017-12-27T12:18:03.776Z,48.30
2017-12-27T12:19:08.928Z,48.70
2017-12-27T12:20:14.066Z,49.60
2017-12-27T12:21:18.988Z,49.70
2017-12-27T12:22:24.111Z,50.00
2017-12-27T12:23:29.358Z,50.00
2017-12-27T12:24:34.363Z,49.80
2017-12-27T12:25:39.364Z,49.80
2017-12-27T12:26:56.957Z,50.10
2017-12-27T12:28:03.361Z,50.10
2017-12-27T12:29:09.445Z,50.50
2017-12-27T12:30:14.388Z,50.90
2017-12-27T12:31:19.240Z,51.00
2017-12-27T12:32:24.174Z,51.20
2017-12-27T12:33:29.182Z,51.30
2017-12-27T12:34:34.086Z,51.40
2017-12-27T12:35:39.018Z,51.50
2017-12-27T12:36:43.834Z,51.60
2017-12-27T12:37:48.773Z,51.70
2017-12-27T12:38:53.548Z,51.80
2017-12-27T12:39:58.498Z,51.90
2017-12-27T12:41:03.486Z,52.00
2017-12-27T12:42:08.443Z,52.10
2017-12-27T12:43:13.412Z,52.20
2017-12-27T12:44:18.432Z,52.30
2017-12-27T12:45:23.257Z,52.40
2017-12-27T12:46:28.243Z,52.50
2017-12-27T12:47:34.239Z,52.70
2017-12-27T12:48:39.053Z,52.70
2017-12-27T12:49:44.028Z,52.80
2017-12-27T12:50:49.043Z,52.90
2017-12-27T12:51:53.851Z,53.00
2017-12-27T12:52:58.794Z,53.00
2017-12-27T12:54:03.804Z,53.10
2017-12-27T12:55:08.682Z,53.20
2017-12-27T12:56:13.458Z,53.30
2017-12-27T12:57:18.477Z,53.30
2017-12-27T12:58:23.528Z,53.30
2017-12-27T12:59:28.482Z,53.40
2017-12-27T13:00:33.518Z,53.50
2017-12-27T13:01:38.326Z,53.50
2017-12-27T13:02:43.357Z,53.60
2017-12-27T13:03:48.378Z,53.70
2017-12-27T13:04:53.207Z,53.80
2017-12-27T13:05:57.996Z,53.90
2017-12-27T13:07:02.967Z,53.90
2017-12-27T13:08:07.914Z,54.50
2017-12-27T13:09:12.889Z,54.00
2017-12-27T13:10:17.655Z,54.00
2017-12-27T13:11:22.643Z,54.10
2017-12-27T13:12:27.417Z,54.20
2017-12-27T13:13:32.217Z,54.30
2017-12-27T13:14:37.050Z,54.20
2017-12-27T13:15:42.142Z,54.30
2017-12-27T13:16:47.424Z,54.30
2017-12-27T13:17:52.306Z,54.40
2017-12-27T13:18:57.213Z,54.40
2017-12-27T13:20:02.078Z,54.50
2017-12-27T13:21:06.907Z,54.50
2017-12-27T13:22:11.895Z,54.60
2017-12-27T13:23:16.997Z,54.70
2017-12-27T13:24:22.126Z,54.70
2017-12-27T13:25:26.979Z,54.70
2017-12-27T13:26:31.823Z,54.80
2017-12-27T13:27:36.690Z,54.80
2017-12-27T13:28:41.757Z,54.70
2017-12-27T13:29:46.798Z,54.90
2017-12-27T13:30:51.637Z,55.00
2017-12-27T13:31:56.586Z,54.90
2017-12-27T13:33:01.430Z,55.00
2017-12-27T13:34:06.284Z,55.00
2017-12-27T13:35:11.121Z,55.00
2017-12-27T13:36:16.041Z,55.00
2017-12-27T13:37:20.829Z,55.10
2017-12-27T13:38:25.695Z,55.20
2017-12-27T13:39:30.601Z,55.20
2017-12-27T13:40:35.547Z,55.20
2017-12-27T13:41:40.584Z,55.20
2017-12-27T13:42:45.556Z,55.20
2017-12-27T13:43:50.671Z,55.20
2017-12-27T13:44:55.397Z,55.20
2017-12-27T13:46:00.200Z,55.30
2017-12-27T13:47:05.220Z,55.40
2017-12-27T13:48:10.022Z,55.40
2017-12-27T13:49:14.996Z,55.40
2017-12-27T13:50:19.909Z,55.40
2017-12-27T13:51:24.985Z,55.40
2017-12-27T13:52:29.922Z,55.50
2017-12-27T13:53:34.987Z,55.50
2017-12-27T13:54:39.815Z,55.60
2017-12-27T13:55:44.791Z,55.60
2017-12-27T13:56:49.641Z,55.60
2017-12-27T13:57:54.465Z,55.70